Ana Sayfa
METAR-TAF:

METAR-TAF

Havaalanları :

Hobart, Oklahoma, Amerika Birleşik Devletleri

Enlem: 34-59-22N, Boylam: 099-03-09W, yükseklik: 476 m

Güncel hava durumu gözlemi

Rapor saat 11:53 UTC de 33 dakika önce yapıldı.
Rüzgar güneydan 15 kt
Sıcaklık 26°C
Nem 65%
Basınç 1012 hPa
Görüş mesafesi: 16.1 km
Açık gökyüzü

METAR: KHBR 191153Z AUTO 19015KT 10SM CLR 26/19 A2989 RMK AO2 SLP097 T02610194 10294 20261 53006

Saat: 07:26 (12:26 UTC)


TAF: eksik

4.000'den fazla havaalanı için hava durumu gözlemleri ve tahminleri (METAR ve TAF raporları).

Kullanılabilir istasyonlar harita üzerinde sarı ve kırmızı noktalarla gösterilir.

İstasyonun adını görmek için fareyi noktanın üzerinde gezdirin.

Sonrasında hava gözlem ve tahminlerini görmek için tıklayın.

Haritayı değiştirmek için: yaklaştırmak için siyah artı işaretli yeşil düğmeye ve uzaklaştırmak için de eksi işaretli düğmeye hızla tıklayın; bitişik haritalar için yeşil okları kullanın.


METAR-TAF: